Paraibuna, Brazil
Current Conditions -  °F | °C
As of 11:00 AM on Monday 22 Dec 2014 (Local Time) from SBSJ Reporting Station
Broken Clouds Broken Clouds  
Wind Chill: 88°   Ceiling: 10000
Heat Index: 91°   Visibility: 6mi
Dew Point: 68°   Wind: 5mph
Humidity: 52%   Direction: 350°N
Pressure: 29.97"   Gusts: NA
Location:  23.4°S, 45.66°W
Report Text: SBSJ 221300Z 35004KT 9999 SCT020 BKN100 31/20 Q1015
Loading
Personal Weather Stations






























Interactive Weather Map New forecast layout! Learn more

10-Day Weather Forecast

Advertisements
Track Severe Weather on mobile